Old Orchard Beach, Maine
Current Conditions -  °F | °C
As of 9:51 PM on Monday 26 Jan 2015 (Local Time) from KPWM Reporting Station
Overcast Overcast  
Wind Chill:   Ceiling: 7500
Heat Index: 17°   Visibility: 10mi
Dew Point:   Wind: 17mph
Humidity: 47%   Direction: 20°NNE
Pressure: 30.12"   Gusts: 25mph
Location:  43.52°N, 70.38°W
Report Text: KPWM 270251Z 02015G22KT 10SM BKN075 OVC090 M08/M18 A3012 RMK AO2 SLP200 T10831178 58020
Loading
Personal Weather Stations






























Interactive Weather Map New forecast layout! Learn more

10-Day Weather Forecast

Advertisements
Track Severe Weather on mobile